sensor_id;sensor_type;location;lat;lon;timestamp;temperature;humidity
4520;DHT22;2272;49.226;8.108;2023-06-10T00:01:19;19.00;92.50
4520;DHT22;2272;49.226;8.108;2023-06-10T00:03:46;19.00;92.60
4520;DHT22;2272;49.226;8.108;2023-06-10T00:06:14;19.00;92.70
4520;DHT22;2272;49.226;8.108;2023-06-10T00:08:41;19.00;92.80
4520;DHT22;2272;49.226;8.108;2023-06-10T00:11:07;18.90;92.80
4520;DHT22;2272;49.226;8.108;2023-06-10T00:13:34;19.00;92.90
4520;DHT22;2272;49.226;8.108;2023-06-10T00:16:01;18.90;92.90
4520;DHT22;2272;49.226;8.108;2023-06-10T00:18:28;18.90;93.00
4520;DHT22;2272;49.226;8.108;2023-06-10T00:20:56;18.90;93.10
4520;DHT22;2272;49.226;8.108;2023-06-10T00:23:29;18.90;93.20
4520;DHT22;2272;49.226;8.108;2023-06-10T00:25:58;18.90;93.20
4520;DHT22;2272;49.226;8.108;2023-06-10T00:28:24;18.80;93.40
4520;DHT22;2272;49.226;8.108;2023-06-10T00:30:51;18.80;93.40
4520;DHT22;2272;49.226;8.108;2023-06-10T00:33:18;18.80;93.50
4520;DHT22;2272;49.226;8.108;2023-06-10T00:35:45;18.80;93.50
4520;DHT22;2272;49.226;8.108;2023-06-10T00:38:13;18.80;93.50
4520;DHT22;2272;49.226;8.108;2023-06-10T00:40:42;18.70;93.60
4520;DHT22;2272;49.226;8.108;2023-06-10T00:43:09;18.70;93.60
4520;DHT22;2272;49.226;8.108;2023-06-10T00:45:36;18.70;93.70
4520;DHT22;2272;49.226;8.108;2023-06-10T00:48:03;18.60;93.70
4520;DHT22;2272;49.226;8.108;2023-06-10T00:50:30;18.50;93.90
4520;DHT22;2272;49.226;8.108;2023-06-10T00:52:59;18.50;94.10
4520;DHT22;2272;49.226;8.108;2023-06-10T00:55:26;18.40;94.00
4520;DHT22;2272;49.226;8.108;2023-06-10T00:57:54;18.40;94.10
4520;DHT22;2272;49.226;8.108;2023-06-10T01:00:21;18.30;94.30
4520;DHT22;2272;49.226;8.108;2023-06-10T01:02:48;18.20;94.40
4520;DHT22;2272;49.226;8.108;2023-06-10T01:05:18;18.10;94.40
4520;DHT22;2272;49.226;8.108;2023-06-10T01:07:50;18.20;94.60
4520;DHT22;2272;49.226;8.108;2023-06-10T01:10:26;18.20;94.70
4520;DHT22;2272;49.226;8.108;2023-06-10T01:12:59;18.10;94.60
4520;DHT22;2272;49.226;8.108;2023-06-10T01:15:29;18.20;94.60
4520;DHT22;2272;49.226;8.108;2023-06-10T01:17:57;18.20;94.60
4520;DHT22;2272;49.226;8.108;2023-06-10T01:20:25;18.20;94.70
4520;DHT22;2272;49.226;8.108;2023-06-10T01:22:54;18.20;94.60
4520;DHT22;2272;49.226;8.108;2023-06-10T01:25:23;18.20;94.60
4520;DHT22;2272;49.226;8.108;2023-06-10T01:27:54;18.20;94.60
4520;DHT22;2272;49.226;8.108;2023-06-10T01:30:27;18.20;94.70
4520;DHT22;2272;49.226;8.108;2023-06-10T01:32:58;18.20;94.90
4520;DHT22;2272;49.226;8.108;2023-06-10T01:35:26;18.10;94.80
4520;DHT22;2272;49.226;8.108;2023-06-10T01:37:57;18.00;94.90
4520;DHT22;2272;49.226;8.108;2023-06-10T01:40:25;18.10;95.00
4520;DHT22;2272;49.226;8.108;2023-06-10T01:42:53;18.10;94.90
4520;DHT22;2272;49.226;8.108;2023-06-10T01:45:19;18.10;94.90
4520;DHT22;2272;49.226;8.108;2023-06-10T01:47:46;18.10;94.80
4520;DHT22;2272;49.226;8.108;2023-06-10T01:50:13;18.10;94.80
4520;DHT22;2272;49.226;8.108;2023-06-10T01:52:40;18.10;94.90
4520;DHT22;2272;49.226;8.108;2023-06-10T01:55:08;18.00;95.00
4520;DHT22;2272;49.226;8.108;2023-06-10T01:57:35;18.00;95.10
4520;DHT22;2272;49.226;8.108;2023-06-10T02:00:02;17.90;95.20
4520;DHT22;2272;49.226;8.108;2023-06-10T02:02:28;17.90;95.30
4520;DHT22;2272;49.226;8.108;2023-06-10T02:04:55;17.80;95.30
4520;DHT22;2272;49.226;8.108;2023-06-10T02:07:22;17.70;95.50
4520;DHT22;2272;49.226;8.108;2023-06-10T02:09:49;17.70;95.60
4520;DHT22;2272;49.226;8.108;2023-06-10T02:12:17;17.70;95.60
4520;DHT22;2272;49.226;8.108;2023-06-10T02:14:44;17.60;95.60
4520;DHT22;2272;49.226;8.108;2023-06-10T02:17:10;17.60;95.80
4520;DHT22;2272;49.226;8.108;2023-06-10T02:19:40;17.50;96.20
4520;DHT22;2272;49.226;8.108;2023-06-10T02:22:08;17.50;95.90
4520;DHT22;2272;49.226;8.108;2023-06-10T02:24:36;17.50;95.90
4520;DHT22;2272;49.226;8.108;2023-06-10T02:27:04;17.50;95.90
4520;DHT22;2272;49.226;8.108;2023-06-10T02:29:33;17.50;96.00
4520;DHT22;2272;49.226;8.108;2023-06-10T02:32:01;17.40;96.00
4520;DHT22;2272;49.226;8.108;2023-06-10T02:34:28;17.30;96.00
4520;DHT22;2272;49.226;8.108;2023-06-10T02:36:55;17.30;96.20
4520;DHT22;2272;49.226;8.108;2023-06-10T02:39:22;17.30;96.50
4520;DHT22;2272;49.226;8.108;2023-06-10T02:41:48;17.20;96.70
4520;DHT22;2272;49.226;8.108;2023-06-10T02:44:15;17.10;96.70
4520;DHT22;2272;49.226;8.108;2023-06-10T02:46:43;17.20;96.70
4520;DHT22;2272;49.226;8.108;2023-06-10T02:49:11;17.10;96.80
4520;DHT22;2272;49.226;8.108;2023-06-10T02:51:38;17.10;96.90
4520;DHT22;2272;49.226;8.108;2023-06-10T02:54:05;17.00;97.00
4520;DHT22;2272;49.226;8.108;2023-06-10T02:56:32;16.90;97.00
4520;DHT22;2272;49.226;8.108;2023-06-10T02:58:58;16.90;97.30
4520;DHT22;2272;49.226;8.108;2023-06-10T03:01:26;16.90;97.40
4520;DHT22;2272;49.226;8.108;2023-06-10T03:03:54;16.90;97.40
4520;DHT22;2272;49.226;8.108;2023-06-10T03:06:21;16.90;97.50
4520;DHT22;2272;49.226;8.108;2023-06-10T03:08:49;16.90;97.50
4520;DHT22;2272;49.226;8.108;2023-06-10T03:11:16;17.00;97.60
4520;DHT22;2272;49.226;8.108;2023-06-10T03:13:44;17.00;97.60
4520;DHT22;2272;49.226;8.108;2023-06-10T03:16:12;17.00;97.50
4520;DHT22;2272;49.226;8.108;2023-06-10T03:18:38;17.00;97.50
4520;DHT22;2272;49.226;8.108;2023-06-10T03:21:06;17.00;97.50
4520;DHT22;2272;49.226;8.108;2023-06-10T03:23:34;17.00;97.60
4520;DHT22;2272;49.226;8.108;2023-06-10T03:26:00;17.10;97.60
4520;DHT22;2272;49.226;8.108;2023-06-10T03:28:27;17.10;97.50
4520;DHT22;2272;49.226;8.108;2023-06-10T03:30:54;17.10;97.50
4520;DHT22;2272;49.226;8.108;2023-06-10T03:33:20;17.20;97.50
4520;DHT22;2272;49.226;8.108;2023-06-10T03:35:47;17.20;97.50
4520;DHT22;2272;49.226;8.108;2023-06-10T03:38:15;17.20;97.50
4520;DHT22;2272;49.226;8.108;2023-06-10T03:40:42;17.30;97.50
4520;DHT22;2272;49.226;8.108;2023-06-10T03:43:09;17.30;97.50
4520;DHT22;2272;49.226;8.108;2023-06-10T03:45:35;17.40;97.50
4520;DHT22;2272;49.226;8.108;2023-06-10T03:48:04;17.40;97.50
4520;DHT22;2272;49.226;8.108;2023-06-10T03:50:31;17.40;97.50
4520;DHT22;2272;49.226;8.108;2023-06-10T03:52:58;17.40;97.50
4520;DHT22;2272;49.226;8.108;2023-06-10T03:55:26;17.40;97.40
4520;DHT22;2272;49.226;8.108;2023-06-10T03:57:53;17.40;97.60
4520;DHT22;2272;49.226;8.108;2023-06-10T04:00:20;17.40;97.70
4520;DHT22;2272;49.226;8.108;2023-06-10T04:02:47;17.40;97.80
4520;DHT22;2272;49.226;8.108;2023-06-10T04:05:17;17.40;97.90
4520;DHT22;2272;49.226;8.108;2023-06-10T04:07:44;17.50;97.90
4520;DHT22;2272;49.226;8.108;2023-06-10T04:10:11;17.50;98.20
4520;DHT22;2272;49.226;8.108;2023-06-10T04:12:39;17.50;98.20
4520;DHT22;2272;49.226;8.108;2023-06-10T04:15:07;17.50;98.30
4520;DHT22;2272;49.226;8.108;2023-06-10T04:17:34;17.60;98.50
4520;DHT22;2272;49.226;8.108;2023-06-10T04:20:01;17.60;98.50
4520;DHT22;2272;49.226;8.108;2023-06-10T04:22:29;17.60;98.50
4520;DHT22;2272;49.226;8.108;2023-06-10T04:24:56;17.70;98.50
4520;DHT22;2272;49.226;8.108;2023-06-10T04:27:23;17.80;98.50
4520;DHT22;2272;49.226;8.108;2023-06-10T04:29:51;17.90;98.50
4520;DHT22;2272;49.226;8.108;2023-06-10T04:32:18;18.00;98.50
4520;DHT22;2272;49.226;8.108;2023-06-10T04:34:45;18.10;98.40
4520;DHT22;2272;49.226;8.108;2023-06-10T04:37:12;18.30;98.30
4520;DHT22;2272;49.226;8.108;2023-06-10T04:39:38;18.40;98.10
4520;DHT22;2272;49.226;8.108;2023-06-10T04:42:07;18.50;98.00
4520;DHT22;2272;49.226;8.108;2023-06-10T04:44:33;18.60;98.00
4520;DHT22;2272;49.226;8.108;2023-06-10T04:47:01;18.80;98.00
4520;DHT22;2272;49.226;8.108;2023-06-10T04:49:28;18.90;97.90
4520;DHT22;2272;49.226;8.108;2023-06-10T04:51:55;19.00;97.90
4520;DHT22;2272;49.226;8.108;2023-06-10T04:54:22;19.10;97.80
4520;DHT22;2272;49.226;8.108;2023-06-10T04:56:48;19.20;97.70
4520;DHT22;2272;49.226;8.108;2023-06-10T04:59:15;19.30;97.60
4520;DHT22;2272;49.226;8.108;2023-06-10T05:01:42;19.50;97.60
4520;DHT22;2272;49.226;8.108;2023-06-10T05:04:10;19.60;97.40
4520;DHT22;2272;49.226;8.108;2023-06-10T05:06:36;19.70;97.40
4520;DHT22;2272;49.226;8.108;2023-06-10T05:09:03;19.80;97.30
4520;DHT22;2272;49.226;8.108;2023-06-10T05:11:30;20.00;97.10
4520;DHT22;2272;49.226;8.108;2023-06-10T05:13:57;20.10;97.00
4520;DHT22;2272;49.226;8.108;2023-06-10T05:16:24;20.30;96.90
4520;DHT22;2272;49.226;8.108;2023-06-10T05:18:51;20.40;96.60
4520;DHT22;2272;49.226;8.108;2023-06-10T05:21:19;20.80;96.40
4520;DHT22;2272;49.226;8.108;2023-06-10T05:23:46;21.60;96.00
4520;DHT22;2272;49.226;8.108;2023-06-10T05:26:12;22.50;94.80
4520;DHT22;2272;49.226;8.108;2023-06-10T05:28:39;23.00;94.30
4520;DHT22;2272;49.226;8.108;2023-06-10T05:31:06;23.60;93.80
4520;DHT22;2272;49.226;8.108;2023-06-10T05:33:33;24.00;93.30
4520;DHT22;2272;49.226;8.108;2023-06-10T05:35:59;24.30;92.60
4520;DHT22;2272;49.226;8.108;2023-06-10T05:38:27;24.50;92.40
4520;DHT22;2272;49.226;8.108;2023-06-10T05:40:54;24.60;91.80
4520;DHT22;2272;49.226;8.108;2023-06-10T05:43:22;24.60;91.70
4520;DHT22;2272;49.226;8.108;2023-06-10T05:45:49;24.70;91.80
4520;DHT22;2272;49.226;8.108;2023-06-10T05:48:15;24.70;91.30
4520;DHT22;2272;49.226;8.108;2023-06-10T05:50:42;24.70;91.20
4520;DHT22;2272;49.226;8.108;2023-06-10T05:53:13;24.50;90.90
4520;DHT22;2272;49.226;8.108;2023-06-10T05:55:42;24.40;91.10
4520;DHT22;2272;49.226;8.108;2023-06-10T05:58:09;24.40;91.30
4520;DHT22;2272;49.226;8.108;2023-06-10T06:00:37;24.50;91.30
4520;DHT22;2272;49.226;8.108;2023-06-10T06:03:06;24.70;91.10
4520;DHT22;2272;49.226;8.108;2023-06-10T06:05:33;24.70;90.30
4520;DHT22;2272;49.226;8.108;2023-06-10T06:08:01;24.50;90.70
4520;DHT22;2272;49.226;8.108;2023-06-10T06:10:28;24.40;90.80
4520;DHT22;2272;49.226;8.108;2023-06-10T06:12:56;24.20;90.70
4520;DHT22;2272;49.226;8.108;2023-06-10T06:15:23;24.10;90.90
4520;DHT22;2272;49.226;8.108;2023-06-10T06:17:49;23.90;90.60
4520;DHT22;2272;49.226;8.108;2023-06-10T06:20:18;23.80;90.90
4520;DHT22;2272;49.226;8.108;2023-06-10T06:22:44;23.80;90.90
4520;DHT22;2272;49.226;8.108;2023-06-10T06:25:11;23.80;90.60
4520;DHT22;2272;49.226;8.108;2023-06-10T06:27:38;23.70;90.80
4520;DHT22;2272;49.226;8.108;2023-06-10T06:30:07;23.80;90.70
4520;DHT22;2272;49.226;8.108;2023-06-10T06:32:34;23.80;90.70
4520;DHT22;2272;49.226;8.108;2023-06-10T06:35:01;23.60;90.70
4520;DHT22;2272;49.226;8.108;2023-06-10T06:37:28;23.50;91.10
4520;DHT22;2272;49.226;8.108;2023-06-10T06:39:54;23.40;91.40
4520;DHT22;2272;49.226;8.108;2023-06-10T06:42:21;23.40;91.30
4520;DHT22;2272;49.226;8.108;2023-06-10T06:44:48;23.20;91.60
4520;DHT22;2272;49.226;8.108;2023-06-10T06:47:16;23.00;91.60
4520;DHT22;2272;49.226;8.108;2023-06-10T06:49:45;22.90;92.00
4520;DHT22;2272;49.226;8.108;2023-06-10T06:52:12;22.90;92.10
4520;DHT22;2272;49.226;8.108;2023-06-10T06:54:39;22.80;92.40
4520;DHT22;2272;49.226;8.108;2023-06-10T06:57:06;22.80;92.60
4520;DHT22;2272;49.226;8.108;2023-06-10T06:59:32;22.80;92.70
4520;DHT22;2272;49.226;8.108;2023-06-10T07:01:59;22.80;92.70
4520;DHT22;2272;49.226;8.108;2023-06-10T07:04:27;22.90;93.20
4520;DHT22;2272;49.226;8.108;2023-06-10T07:06:54;23.00;93.00
4520;DHT22;2272;49.226;8.108;2023-06-10T07:09:21;23.10;93.10
4520;DHT22;2272;49.226;8.108;2023-06-10T07:11:47;23.10;93.10
4520;DHT22;2272;49.226;8.108;2023-06-10T07:14:14;23.10;92.70
4520;DHT22;2272;49.226;8.108;2023-06-10T07:16:41;23.10;93.10
4520;DHT22;2272;49.226;8.108;2023-06-10T07:19:08;23.20;93.00
4520;DHT22;2272;49.226;8.108;2023-06-10T07:21:36;23.30;92.70
4520;DHT22;2272;49.226;8.108;2023-06-10T07:24:03;23.30;93.30
4520;DHT22;2272;49.226;8.108;2023-06-10T07:26:30;23.50;93.10
4520;DHT22;2272;49.226;8.108;2023-06-10T07:28:57;23.60;92.90
4520;DHT22;2272;49.226;8.108;2023-06-10T07:31:24;23.60;93.30
4520;DHT22;2272;49.226;8.108;2023-06-10T07:33:51;23.60;92.90
4520;DHT22;2272;49.226;8.108;2023-06-10T07:36:17;23.70;93.20
4520;DHT22;2272;49.226;8.108;2023-06-10T07:38:45;23.80;93.60
4520;DHT22;2272;49.226;8.108;2023-06-10T07:41:12;24.10;93.80
4520;DHT22;2272;49.226;8.108;2023-06-10T07:43:41;24.30;93.10
4520;DHT22;2272;49.226;8.108;2023-06-10T07:46:08;24.40;92.90
4520;DHT22;2272;49.226;8.108;2023-06-10T07:48:34;24.30;92.80
4520;DHT22;2272;49.226;8.108;2023-06-10T07:51:01;24.30;93.00
4520;DHT22;2272;49.226;8.108;2023-06-10T07:53:28;24.40;93.10
4520;DHT22;2272;49.226;8.108;2023-06-10T07:55:56;24.60;92.90
4520;DHT22;2272;49.226;8.108;2023-06-10T07:58:22;24.70;92.80
4520;DHT22;2272;49.226;8.108;2023-06-10T08:00:49;24.80;93.10
4520;DHT22;2272;49.226;8.108;2023-06-10T08:03:16;24.80;92.80
4520;DHT22;2272;49.226;8.108;2023-06-10T08:05:43;24.90;92.60
4520;DHT22;2272;49.226;8.108;2023-06-10T08:08:10;25.00;92.60
4520;DHT22;2272;49.226;8.108;2023-06-10T08:10:36;25.10;92.60
4520;DHT22;2272;49.226;8.108;2023-06-10T08:13:04;25.20;92.30
4520;DHT22;2272;49.226;8.108;2023-06-10T08:15:31;25.40;91.70
4520;DHT22;2272;49.226;8.108;2023-06-10T08:17:58;25.50;91.70
4520;DHT22;2272;49.226;8.108;2023-06-10T08:20:24;25.70;92.00
4520;DHT22;2272;49.226;8.108;2023-06-10T08:22:51;25.70;91.70
4520;DHT22;2272;49.226;8.108;2023-06-10T08:25:19;25.80;91.60
4520;DHT22;2272;49.226;8.108;2023-06-10T08:27:47;25.90;91.10
4520;DHT22;2272;49.226;8.108;2023-06-10T08:30:15;25.90;91.30
4520;DHT22;2272;49.226;8.108;2023-06-10T08:32:43;26.00;91.50
4520;DHT22;2272;49.226;8.108;2023-06-10T08:35:10;26.10;91.30
4520;DHT22;2272;49.226;8.108;2023-06-10T08:37:37;26.20;90.70
4520;DHT22;2272;49.226;8.108;2023-06-10T08:40:04;26.20;91.00
4520;DHT22;2272;49.226;8.108;2023-06-10T08:42:34;26.50;89.80
4520;DHT22;2272;49.226;8.108;2023-06-10T08:45:05;26.70;89.20
4520;DHT22;2272;49.226;8.108;2023-06-10T08:47:35;26.80;87.90
4520;DHT22;2272;49.226;8.108;2023-06-10T08:50:06;26.80;87.90
4520;DHT22;2272;49.226;8.108;2023-06-10T08:52:36;26.80;89.20
4520;DHT22;2272;49.226;8.108;2023-06-10T08:55:04;26.90;88.80
4520;DHT22;2272;49.226;8.108;2023-06-10T08:57:32;26.90;87.60
4520;DHT22;2272;49.226;8.108;2023-06-10T09:00:01;27.10;88.10
4520;DHT22;2272;49.226;8.108;2023-06-10T09:02:28;27.20;87.00
4520;DHT22;2272;49.226;8.108;2023-06-10T09:04:58;27.30;86.50
4520;DHT22;2272;49.226;8.108;2023-06-10T09:07:26;27.20;86.40
4520;DHT22;2272;49.226;8.108;2023-06-10T09:09:53;27.20;86.40
4520;DHT22;2272;49.226;8.108;2023-06-10T09:12:21;27.20;86.20
4520;DHT22;2272;49.226;8.108;2023-06-10T09:14:47;27.20;85.60
4520;DHT22;2272;49.226;8.108;2023-06-10T09:17:15;27.10;86.00
4520;DHT22;2272;49.226;8.108;2023-06-10T09:19:42;27.30;86.90
4520;DHT22;2272;49.226;8.108;2023-06-10T09:22:12;27.50;85.20
4520;DHT22;2272;49.226;8.108;2023-06-10T09:24:39;27.50;85.30
4520;DHT22;2272;49.226;8.108;2023-06-10T09:27:07;27.50;85.20
4520;DHT22;2272;49.226;8.108;2023-06-10T09:29:46;27.50;85.00
4520;DHT22;2272;49.226;8.108;2023-06-10T09:32:13;27.40;84.90
4520;DHT22;2272;49.226;8.108;2023-06-10T09:34:40;27.50;85.30
4520;DHT22;2272;49.226;8.108;2023-06-10T09:37:07;27.50;84.30
4520;DHT22;2272;49.226;8.108;2023-06-10T09:39:38;27.50;85.00
4520;DHT22;2272;49.226;8.108;2023-06-10T09:42:15;27.60;83.50
4520;DHT22;2272;49.226;8.108;2023-06-10T09:44:42;27.70;85.00
4520;DHT22;2272;49.226;8.108;2023-06-10T09:47:20;27.80;83.70
4520;DHT22;2272;49.226;8.108;2023-06-10T09:49:47;27.80;83.60
4520;DHT22;2272;49.226;8.108;2023-06-10T09:52:21;28.10;84.00
4520;DHT22;2272;49.226;8.108;2023-06-10T09:54:50;28.40;83.20
4520;DHT22;2272;49.226;8.108;2023-06-10T09:57:17;28.60;82.70
4520;DHT22;2272;49.226;8.108;2023-06-10T09:59:45;28.70;83.10
4520;DHT22;2272;49.226;8.108;2023-06-10T10:02:14;28.80;82.40
4520;DHT22;2272;49.226;8.108;2023-06-10T10:04:41;28.90;80.10
4520;DHT22;2272;49.226;8.108;2023-06-10T10:07:08;28.80;79.80
4520;DHT22;2272;49.226;8.108;2023-06-10T10:09:36;28.70;81.00
4520;DHT22;2272;49.226;8.108;2023-06-10T10:12:09;28.70;82.10
4520;DHT22;2272;49.226;8.108;2023-06-10T10:14:37;28.90;80.10
4520;DHT22;2272;49.226;8.108;2023-06-10T10:17:08;29.10;78.60
4520;DHT22;2272;49.226;8.108;2023-06-10T10:19:42;29.30;79.40
4520;DHT22;2272;49.226;8.108;2023-06-10T10:22:25;29.60;78.20
4520;DHT22;2272;49.226;8.108;2023-06-10T10:24:55;29.70;78.80
4520;DHT22;2272;49.226;8.108;2023-06-10T10:27:27;29.90;75.90
4520;DHT22;2272;49.226;8.108;2023-06-10T10:29:55;29.90;76.10
4520;DHT22;2272;49.226;8.108;2023-06-10T10:32:29;29.90;76.70
4520;DHT22;2272;49.226;8.108;2023-06-10T10:35:03;30.00;75.20
4520;DHT22;2272;49.226;8.108;2023-06-10T10:37:33;30.00;75.40
4520;DHT22;2272;49.226;8.108;2023-06-10T10:40:01;29.90;75.70
4520;DHT22;2272;49.226;8.108;2023-06-10T10:42:30;29.90;75.30
4520;DHT22;2272;49.226;8.108;2023-06-10T10:44:58;29.90;75.30
4520;DHT22;2272;49.226;8.108;2023-06-10T10:47:27;29.90;75.60
4520;DHT22;2272;49.226;8.108;2023-06-10T10:49:55;30.10;75.00
4520;DHT22;2272;49.226;8.108;2023-06-10T10:52:24;30.40;73.40
4520;DHT22;2272;49.226;8.108;2023-06-10T10:54:53;30.50;73.40
4520;DHT22;2272;49.226;8.108;2023-06-10T10:57:23;30.80;73.60
4520;DHT22;2272;49.226;8.108;2023-06-10T10:59:58;31.00;74.90
4520;DHT22;2272;49.226;8.108;2023-06-10T11:02:40;31.30;72.00
4520;DHT22;2272;49.226;8.108;2023-06-10T11:05:09;31.30;72.00
4520;DHT22;2272;49.226;8.108;2023-06-10T11:07:36;31.50;72.00
4520;DHT22;2272;49.226;8.108;2023-06-10T11:10:07;31.70;71.10
4520;DHT22;2272;49.226;8.108;2023-06-10T11:12:50;31.90;70.40
4520;DHT22;2272;49.226;8.108;2023-06-10T11:15:23;32.20;70.40
4520;DHT22;2272;49.226;8.108;2023-06-10T11:18:13;32.40;70.40
4520;DHT22;2272;49.226;8.108;2023-06-10T11:20:54;32.40;66.60
4520;DHT22;2272;49.226;8.108;2023-06-10T11:26:11;31.10;69.70
4520;DHT22;2272;49.226;8.108;2023-06-10T11:28:37;31.30;69.90
4520;DHT22;2272;49.226;8.108;2023-06-10T11:31:06;31.40;68.80
4520;DHT22;2272;49.226;8.108;2023-06-10T11:33:33;31.50;68.10
4520;DHT22;2272;49.226;8.108;2023-06-10T11:35:59;31.80;69.10
4520;DHT22;2272;49.226;8.108;2023-06-10T11:38:26;32.00;68.20
4520;DHT22;2272;49.226;8.108;2023-06-10T11:40:55;32.20;67.70
4520;DHT22;2272;49.226;8.108;2023-06-10T11:43:22;32.60;65.40
4520;DHT22;2272;49.226;8.108;2023-06-10T11:45:54;33.00;65.80
4520;DHT22;2272;49.226;8.108;2023-06-10T11:48:22;33.30;64.60
4520;DHT22;2272;49.226;8.108;2023-06-10T11:50:49;33.60;64.00
4520;DHT22;2272;49.226;8.108;2023-06-10T11:53:16;33.90;64.50
4520;DHT22;2272;49.226;8.108;2023-06-10T11:55:45;34.20;64.70
4520;DHT22;2272;49.226;8.108;2023-06-10T11:58:15;34.40;62.00
4520;DHT22;2272;49.226;8.108;2023-06-10T12:00:46;34.10;63.20
4520;DHT22;2272;49.226;8.108;2023-06-10T12:03:13;33.40;63.70
4520;DHT22;2272;49.226;8.108;2023-06-10T12:05:54;32.50;64.70
4520;DHT22;2272;49.226;8.108;2023-06-10T12:08:21;31.70;66.40
4520;DHT22;2272;49.226;8.108;2023-06-10T12:10:48;31.10;67.30
4520;DHT22;2272;49.226;8.108;2023-06-10T12:13:15;30.70;68.30
4520;DHT22;2272;49.226;8.108;2023-06-10T12:15:43;30.70;69.20
4520;DHT22;2272;49.226;8.108;2023-06-10T12:18:16;30.80;67.10
4520;DHT22;2272;49.226;8.108;2023-06-10T12:20:44;30.80;67.60
4520;DHT22;2272;49.226;8.108;2023-06-10T12:23:12;31.20;67.20
4520;DHT22;2272;49.226;8.108;2023-06-10T12:25:39;31.80;66.90
4520;DHT22;2272;49.226;8.108;2023-06-10T12:28:15;31.80;66.10
4520;DHT22;2272;49.226;8.108;2023-06-10T12:30:43;31.40;65.90
4520;DHT22;2272;49.226;8.108;2023-06-10T12:33:16;31.10;66.20
4520;DHT22;2272;49.226;8.108;2023-06-10T12:35:48;30.80;66.80
4520;DHT22;2272;49.226;8.108;2023-06-10T12:38:21;30.80;67.30
4520;DHT22;2272;49.226;8.108;2023-06-10T12:40:48;31.30;65.00
4520;DHT22;2272;49.226;8.108;2023-06-10T12:43:19;31.60;62.20
4520;DHT22;2272;49.226;8.108;2023-06-10T12:45:46;31.70;62.60
4520;DHT22;2272;49.226;8.108;2023-06-10T12:48:19;31.50;62.70
4520;DHT22;2272;49.226;8.108;2023-06-10T12:50:51;31.50;64.00
4520;DHT22;2272;49.226;8.108;2023-06-10T12:53:21;32.20;63.50
4520;DHT22;2272;49.226;8.108;2023-06-10T12:55:48;33.00;61.10
4520;DHT22;2272;49.226;8.108;2023-06-10T12:58:15;33.60;60.30
4520;DHT22;2272;49.226;8.108;2023-06-10T13:00:42;34.30;59.60
4520;DHT22;2272;49.226;8.108;2023-06-10T13:03:10;34.70;59.80
4520;DHT22;2272;49.226;8.108;2023-06-10T13:05:37;34.90;57.50
4520;DHT22;2272;49.226;8.108;2023-06-10T13:08:05;34.80;57.60
4520;DHT22;2272;49.226;8.108;2023-06-10T13:10:33;35.00;58.10
4520;DHT22;2272;49.226;8.108;2023-06-10T13:13:00;35.00;57.60
4520;DHT22;2272;49.226;8.108;2023-06-10T13:15:26;34.80;57.60
4520;DHT22;2272;49.226;8.108;2023-06-10T13:17:53;34.80;57.90
4520;DHT22;2272;49.226;8.108;2023-06-10T13:20:20;34.60;56.60
4520;DHT22;2272;49.226;8.108;2023-06-10T13:22:47;34.40;58.00
4520;DHT22;2272;49.226;8.108;2023-06-10T13:25:16;34.20;57.80
4520;DHT22;2272;49.226;8.108;2023-06-10T13:27:42;33.80;58.80
4520;DHT22;2272;49.226;8.108;2023-06-10T13:30:10;33.70;57.10
4520;DHT22;2272;49.226;8.108;2023-06-10T13:32:37;33.40;58.20
4520;DHT22;2272;49.226;8.108;2023-06-10T13:35:04;33.20;58.40
4520;DHT22;2272;49.226;8.108;2023-06-10T13:37:31;33.40;58.00
4520;DHT22;2272;49.226;8.108;2023-06-10T13:39:59;33.40;57.50
4520;DHT22;2272;49.226;8.108;2023-06-10T13:42:27;33.60;56.60
4520;DHT22;2272;49.226;8.108;2023-06-10T13:44:54;34.00;56.90
4520;DHT22;2272;49.226;8.108;2023-06-10T13:47:22;34.30;57.00
4520;DHT22;2272;49.226;8.108;2023-06-10T13:49:48;34.10;55.80
4520;DHT22;2272;49.226;8.108;2023-06-10T13:52:15;33.40;56.00
4520;DHT22;2272;49.226;8.108;2023-06-10T13:54:43;32.70;58.20
4520;DHT22;2272;49.226;8.108;2023-06-10T13:57:10;32.40;57.70
4520;DHT22;2272;49.226;8.108;2023-06-10T13:59:38;32.00;58.30
4520;DHT22;2272;49.226;8.108;2023-06-10T14:02:05;31.70;58.10
4520;DHT22;2272;49.226;8.108;2023-06-10T14:04:31;31.50;59.00
4520;DHT22;2272;49.226;8.108;2023-06-10T14:06:58;31.20;59.70
4520;DHT22;2272;49.226;8.108;2023-06-10T14:09:26;31.20;59.90
4520;DHT22;2272;49.226;8.108;2023-06-10T14:11:52;31.30;58.80
4520;DHT22;2272;49.226;8.108;2023-06-10T14:14:19;31.10;59.50
4520;DHT22;2272;49.226;8.108;2023-06-10T14:16:47;31.00;58.80
4520;DHT22;2272;49.226;8.108;2023-06-10T14:19:14;30.90;59.10
4520;DHT22;2272;49.226;8.108;2023-06-10T14:21:41;31.20;59.20
4520;DHT22;2272;49.226;8.108;2023-06-10T14:24:12;31.40;58.30
4520;DHT22;2272;49.226;8.108;2023-06-10T14:26:38;31.80;57.80
4520;DHT22;2272;49.226;8.108;2023-06-10T14:29:05;31.70;58.10
4520;DHT22;2272;49.226;8.108;2023-06-10T14:31:32;31.80;58.30
4520;DHT22;2272;49.226;8.108;2023-06-10T14:34:00;31.70;57.50
4520;DHT22;2272;49.226;8.108;2023-06-10T14:36:27;31.70;57.80
4520;DHT22;2272;49.226;8.108;2023-06-10T14:38:53;31.70;57.40
4520;DHT22;2272;49.226;8.108;2023-06-10T14:41:20;31.80;57.80
4520;DHT22;2272;49.226;8.108;2023-06-10T14:43:48;32.00;58.20
4520;DHT22;2272;49.226;8.108;2023-06-10T14:46:14;32.40;57.20
4520;DHT22;2272;49.226;8.108;2023-06-10T14:48:41;32.50;56.90
4520;DHT22;2272;49.226;8.108;2023-06-10T14:51:09;32.70;56.30
4520;DHT22;2272;49.226;8.108;2023-06-10T14:53:36;32.70;57.90
4520;DHT22;2272;49.226;8.108;2023-06-10T14:56:03;32.60;56.50
4520;DHT22;2272;49.226;8.108;2023-06-10T14:58:30;32.50;57.20
4520;DHT22;2272;49.226;8.108;2023-06-10T15:00:56;32.40;57.60
4520;DHT22;2272;49.226;8.108;2023-06-10T15:03:23;32.20;56.10
4520;DHT22;2272;49.226;8.108;2023-06-10T15:05:50;31.90;56.40
4520;DHT22;2272;49.226;8.108;2023-06-10T15:08:18;31.70;57.30
4520;DHT22;2272;49.226;8.108;2023-06-10T15:10:44;31.70;57.80
4520;DHT22;2272;49.226;8.108;2023-06-10T15:13:13;31.60;57.90
4520;DHT22;2272;49.226;8.108;2023-06-10T15:15:40;31.60;58.30
4520;DHT22;2272;49.226;8.108;2023-06-10T15:18:07;31.70;58.80
4520;DHT22;2272;49.226;8.108;2023-06-10T15:20:33;31.70;58.20
4520;DHT22;2272;49.226;8.108;2023-06-10T15:23:00;31.70;58.30
4520;DHT22;2272;49.226;8.108;2023-06-10T15:25:29;31.50;58.70
4520;DHT22;2272;49.226;8.108;2023-06-10T15:27:55;31.40;59.00
4520;DHT22;2272;49.226;8.108;2023-06-10T15:30:22;31.20;59.70
4520;DHT22;2272;49.226;8.108;2023-06-10T15:32:49;31.10;58.90
4520;DHT22;2272;49.226;8.108;2023-06-10T15:35:16;31.00;59.60
4520;DHT22;2272;49.226;8.108;2023-06-10T15:37:42;31.10;59.30
4520;DHT22;2272;49.226;8.108;2023-06-10T15:40:09;31.20;59.30
4520;DHT22;2272;49.226;8.108;2023-06-10T15:42:38;31.30;59.00
4520;DHT22;2272;49.226;8.108;2023-06-10T15:45:05;31.50;58.40
4520;DHT22;2272;49.226;8.108;2023-06-10T15:47:32;31.80;58.10
4520;DHT22;2272;49.226;8.108;2023-06-10T15:49:59;31.80;58.70
4520;DHT22;2272;49.226;8.108;2023-06-10T15:52:25;31.60;58.90
4520;DHT22;2272;49.226;8.108;2023-06-10T15:54:52;31.50;59.20
4520;DHT22;2272;49.226;8.108;2023-06-10T15:57:19;31.30;59.50
4520;DHT22;2272;49.226;8.108;2023-06-10T15:59:47;31.30;60.10
4520;DHT22;2272;49.226;8.108;2023-06-10T16:02:14;31.50;59.70
4520;DHT22;2272;49.226;8.108;2023-06-10T16:04:40;31.50;58.20
4520;DHT22;2272;49.226;8.108;2023-06-10T16:07:07;31.40;58.70
4520;DHT22;2272;49.226;8.108;2023-06-10T16:09:34;31.20;58.80